sensor_id;sensor_type;location;lat;lon;timestamp;P1;durP1;ratioP1;P2;durP2;ratioP2
28007;SDS011;15333;50.010;20.020;2023-06-24T00:01:59;8.15;;;6.30;;
28007;SDS011;15333;50.010;20.020;2023-06-24T00:05:00;9.88;;;6.32;;
28007;SDS011;15333;50.010;20.020;2023-06-24T00:08:01;6.95;;;6.28;;
28007;SDS011;15333;50.010;20.020;2023-06-24T00:11:02;12.05;;;6.15;;
28007;SDS011;15333;50.010;20.020;2023-06-24T00:14:04;6.78;;;6.07;;
28007;SDS011;15333;50.010;20.020;2023-06-24T00:17:07;9.40;;;6.20;;
28007;SDS011;15333;50.010;20.020;2023-06-24T00:20:09;13.30;;;5.80;;
28007;SDS011;15333;50.010;20.020;2023-06-24T00:23:12;12.40;;;7.97;;
28007;SDS011;15333;50.010;20.020;2023-06-24T00:26:17;7.60;;;5.70;;
28007;SDS011;15333;50.010;20.020;2023-06-24T00:29:18;7.07;;;6.38;;
28007;SDS011;15333;50.010;20.020;2023-06-24T00:32:19;8.43;;;5.80;;
28007;SDS011;15333;50.010;20.020;2023-06-24T00:35:20;8.23;;;5.97;;
28007;SDS011;15333;50.010;20.020;2023-06-24T00:38:21;8.80;;;6.13;;
28007;SDS011;15333;50.010;20.020;2023-06-24T00:41:22;6.35;;;5.70;;
28007;SDS011;15333;50.010;20.020;2023-06-24T00:44:23;7.82;;;5.63;;
28007;SDS011;15333;50.010;20.020;2023-06-24T00:47:24;8.60;;;5.57;;
28007;SDS011;15333;50.010;20.020;2023-06-24T00:50:26;7.78;;;5.82;;
28007;SDS011;15333;50.010;20.020;2023-06-24T00:53:27;9.38;;;5.28;;
28007;SDS011;15333;50.010;20.020;2023-06-24T00:56:33;8.07;;;5.60;;
28007;SDS011;15333;50.010;20.020;2023-06-24T00:59:35;12.60;;;6.00;;
28007;SDS011;15333;50.010;20.020;2023-06-24T01:02:38;7.18;;;6.07;;
28007;SDS011;15333;50.010;20.020;2023-06-24T01:05:43;10.05;;;5.82;;
28007;SDS011;15333;50.010;20.020;2023-06-24T01:08:45;8.35;;;6.00;;
28007;SDS011;15333;50.010;20.020;2023-06-24T01:11:51;8.98;;;5.63;;
28007;SDS011;15333;50.010;20.020;2023-06-24T01:14:53;7.45;;;5.32;;
28007;SDS011;15333;50.010;20.020;2023-06-24T01:21:09;12.82;;;5.55;;
28007;SDS011;15333;50.010;20.020;2023-06-24T01:34:36;8.98;;;6.05;;
28007;SDS011;15333;50.010;20.020;2023-06-24T01:37:45;7.03;;;5.10;;
28007;SDS011;15333;50.010;20.020;2023-06-24T01:40:49;7.20;;;5.60;;
28007;SDS011;15333;50.010;20.020;2023-06-24T01:43:52;9.27;;;5.57;;
28007;SDS011;15333;50.010;20.020;2023-06-24T01:46:55;8.18;;;5.30;;
28007;SDS011;15333;50.010;20.020;2023-06-24T01:49:59;7.25;;;5.03;;
28007;SDS011;15333;50.010;20.020;2023-06-24T01:53:04;6.45;;;5.03;;
28007;SDS011;15333;50.010;20.020;2023-06-24T01:56:08;6.95;;;5.00;;
28007;SDS011;15333;50.010;20.020;2023-06-24T01:59:13;8.98;;;4.93;;
28007;SDS011;15333;50.010;20.020;2023-06-24T02:02:18;7.22;;;4.93;;
28007;SDS011;15333;50.010;20.020;2023-06-24T02:05:21;6.47;;;5.10;;
28007;SDS011;15333;50.010;20.020;2023-06-24T02:08:24;5.97;;;4.90;;
28007;SDS011;15333;50.010;20.020;2023-06-24T02:11:26;6.78;;;4.60;;
28007;SDS011;15333;50.010;20.020;2023-06-24T02:14:30;8.85;;;4.85;;
28007;SDS011;15333;50.010;20.020;2023-06-24T02:17:32;7.32;;;4.30;;
28007;SDS011;15333;50.010;20.020;2023-06-24T02:20:34;11.77;;;4.95;;
28007;SDS011;15333;50.010;20.020;2023-06-24T02:23:37;5.18;;;4.68;;
28007;SDS011;15333;50.010;20.020;2023-06-24T02:26:38;9.77;;;5.07;;
28007;SDS011;15333;50.010;20.020;2023-06-24T02:29:41;6.43;;;5.15;;
28007;SDS011;15333;50.010;20.020;2023-06-24T02:32:43;9.02;;;4.60;;
28007;SDS011;15333;50.010;20.020;2023-06-24T02:35:44;6.55;;;4.80;;
28007;SDS011;15333;50.010;20.020;2023-06-24T02:38:47;7.05;;;4.63;;
28007;SDS011;15333;50.010;20.020;2023-06-24T02:41:48;10.35;;;4.65;;
28007;SDS011;15333;50.010;20.020;2023-06-24T02:44:50;5.47;;;4.78;;
28007;SDS011;15333;50.010;20.020;2023-06-24T02:47:51;10.35;;;5.20;;
28007;SDS011;15333;50.010;20.020;2023-06-24T02:50:53;9.50;;;5.18;;
28007;SDS011;15333;50.010;20.020;2023-06-24T02:53:55;6.47;;;4.88;;
28007;SDS011;15333;50.010;20.020;2023-06-24T02:57:09;9.57;;;5.20;;
28007;SDS011;15333;50.010;20.020;2023-06-24T03:00:30;7.63;;;5.40;;
28007;SDS011;15333;50.010;20.020;2023-06-24T03:03:43;10.77;;;5.43;;
28007;SDS011;15333;50.010;20.020;2023-06-24T03:06:49;7.18;;;5.30;;
28007;SDS011;15333;50.010;20.020;2023-06-24T03:09:51;8.45;;;5.10;;
28007;SDS011;15333;50.010;20.020;2023-06-24T03:12:52;9.32;;;5.25;;
28007;SDS011;15333;50.010;20.020;2023-06-24T03:15:58;7.10;;;4.85;;
28007;SDS011;15333;50.010;20.020;2023-06-24T03:19:00;11.27;;;5.30;;
28007;SDS011;15333;50.010;20.020;2023-06-24T03:22:03;8.20;;;5.05;;
28007;SDS011;15333;50.010;20.020;2023-06-24T03:25:04;8.88;;;4.85;;
28007;SDS011;15333;50.010;20.020;2023-06-24T03:28:05;6.43;;;5.10;;
28007;SDS011;15333;50.010;20.020;2023-06-24T03:31:11;9.68;;;5.97;;
28007;SDS011;15333;50.010;20.020;2023-06-24T03:34:12;10.93;;;5.78;;
28007;SDS011;15333;50.010;20.020;2023-06-24T03:37:15;10.85;;;6.45;;
28007;SDS011;15333;50.010;20.020;2023-06-24T03:40:16;7.60;;;5.50;;
28007;SDS011;15333;50.010;20.020;2023-06-24T03:43:18;9.63;;;5.60;;
28007;SDS011;15333;50.010;20.020;2023-06-24T03:46:19;7.65;;;5.80;;
28007;SDS011;15333;50.010;20.020;2023-06-24T03:49:20;9.70;;;5.93;;
28007;SDS011;15333;50.010;20.020;2023-06-24T03:52:22;11.43;;;5.63;;
28007;SDS011;15333;50.010;20.020;2023-06-24T03:55:24;11.40;;;6.10;;
28007;SDS011;15333;50.010;20.020;2023-06-24T03:58:25;12.55;;;5.57;;
28007;SDS011;15333;50.010;20.020;2023-06-24T04:01:26;10.30;;;5.15;;
28007;SDS011;15333;50.010;20.020;2023-06-24T04:04:26;8.60;;;5.47;;
28007;SDS011;15333;50.010;20.020;2023-06-24T04:07:27;11.30;;;5.25;;
28007;SDS011;15333;50.010;20.020;2023-06-24T04:10:31;11.18;;;5.80;;
28007;SDS011;15333;50.010;20.020;2023-06-24T04:13:33;9.27;;;5.40;;
28007;SDS011;15333;50.010;20.020;2023-06-24T04:16:33;9.27;;;6.03;;
28007;SDS011;15333;50.010;20.020;2023-06-24T04:19:36;7.30;;;5.38;;
28007;SDS011;15333;50.010;20.020;2023-06-24T04:22:37;9.55;;;6.22;;
28007;SDS011;15333;50.010;20.020;2023-06-24T04:25:40;8.25;;;5.43;;
28007;SDS011;15333;50.010;20.020;2023-06-24T04:28:41;7.85;;;5.88;;
28007;SDS011;15333;50.010;20.020;2023-06-24T04:31:42;10.73;;;5.72;;
28007;SDS011;15333;50.010;20.020;2023-06-24T04:34:43;10.93;;;5.65;;
28007;SDS011;15333;50.010;20.020;2023-06-24T04:37:44;8.45;;;6.05;;
28007;SDS011;15333;50.010;20.020;2023-06-24T04:40:46;9.30;;;6.40;;
28007;SDS011;15333;50.010;20.020;2023-06-24T04:43:47;8.15;;;5.82;;
28007;SDS011;15333;50.010;20.020;2023-06-24T04:46:48;8.55;;;6.07;;
28007;SDS011;15333;50.010;20.020;2023-06-24T04:49:49;12.77;;;8.15;;
28007;SDS011;15333;50.010;20.020;2023-06-24T04:52:53;12.93;;;9.15;;
28007;SDS011;15333;50.010;20.020;2023-06-24T04:55:55;8.45;;;6.18;;
28007;SDS011;15333;50.010;20.020;2023-06-24T04:58:55;19.27;;;13.30;;
28007;SDS011;15333;50.010;20.020;2023-06-24T05:01:56;23.83;;;15.35;;
28007;SDS011;15333;50.010;20.020;2023-06-24T05:04:58;9.90;;;6.75;;
28007;SDS011;15333;50.010;20.020;2023-06-24T05:07:59;10.65;;;8.30;;
28007;SDS011;15333;50.010;20.020;2023-06-24T05:10:59;9.15;;;7.60;;
28007;SDS011;15333;50.010;20.020;2023-06-24T05:14:00;11.73;;;7.82;;
28007;SDS011;15333;50.010;20.020;2023-06-24T05:17:02;14.10;;;8.85;;
28007;SDS011;15333;50.010;20.020;2023-06-24T05:20:04;15.38;;;10.43;;
28007;SDS011;15333;50.010;20.020;2023-06-24T05:23:05;15.50;;;11.27;;
28007;SDS011;15333;50.010;20.020;2023-06-24T05:26:06;17.92;;;12.50;;
28007;SDS011;15333;50.010;20.020;2023-06-24T05:29:07;22.10;;;13.85;;
28007;SDS011;15333;50.010;20.020;2023-06-24T05:32:08;18.25;;;14.32;;
28007;SDS011;15333;50.010;20.020;2023-06-24T05:35:09;18.70;;;14.25;;
28007;SDS011;15333;50.010;20.020;2023-06-24T05:38:10;20.92;;;15.00;;
28007;SDS011;15333;50.010;20.020;2023-06-24T05:41:11;24.30;;;14.82;;
28007;SDS011;15333;50.010;20.020;2023-06-24T05:44:12;22.45;;;15.70;;
28007;SDS011;15333;50.010;20.020;2023-06-24T05:47:13;21.58;;;15.57;;
28007;SDS011;15333;50.010;20.020;2023-06-24T05:50:14;20.58;;;15.90;;
28007;SDS011;15333;50.010;20.020;2023-06-24T05:53:15;18.52;;;16.27;;
28007;SDS011;15333;50.010;20.020;2023-06-24T05:56:17;26.77;;;16.60;;
28007;SDS011;15333;50.010;20.020;2023-06-24T05:59:18;26.17;;;16.58;;
28007;SDS011;15333;50.010;20.020;2023-06-24T06:02:19;19.20;;;15.38;;
28007;SDS011;15333;50.010;20.020;2023-06-24T06:05:19;17.83;;;14.85;;
28007;SDS011;15333;50.010;20.020;2023-06-24T06:08:20;21.02;;;15.90;;
28007;SDS011;15333;50.010;20.020;2023-06-24T06:11:21;19.70;;;16.27;;
28007;SDS011;15333;50.010;20.020;2023-06-24T06:14:22;22.70;;;18.65;;
28007;SDS011;15333;50.010;20.020;2023-06-24T06:17:23;22.60;;;18.42;;
28007;SDS011;15333;50.010;20.020;2023-06-24T06:20:24;23.73;;;19.15;;
28007;SDS011;15333;50.010;20.020;2023-06-24T06:23:25;27.65;;;21.55;;
28007;SDS011;15333;50.010;20.020;2023-06-24T06:26:28;26.70;;;19.02;;
28007;SDS011;15333;50.010;20.020;2023-06-24T06:29:28;28.25;;;19.77;;
28007;SDS011;15333;50.010;20.020;2023-06-24T06:32:29;36.92;;;23.60;;
28007;SDS011;15333;50.010;20.020;2023-06-24T06:35:30;25.15;;;19.50;;
28007;SDS011;15333;50.010;20.020;2023-06-24T06:38:34;65.88;;;30.85;;
28007;SDS011;15333;50.010;20.020;2023-06-24T06:41:35;29.42;;;20.63;;
28007;SDS011;15333;50.010;20.020;2023-06-24T06:44:36;32.28;;;20.58;;
28007;SDS011;15333;50.010;20.020;2023-06-24T06:47:37;34.05;;;21.23;;
28007;SDS011;15333;50.010;20.020;2023-06-24T06:50:38;32.38;;;22.75;;
28007;SDS011;15333;50.010;20.020;2023-06-24T06:53:39;32.83;;;22.02;;
28007;SDS011;15333;50.010;20.020;2023-06-24T06:56:40;33.92;;;21.90;;
28007;SDS011;15333;50.010;20.020;2023-06-24T06:59:40;30.52;;;21.90;;
28007;SDS011;15333;50.010;20.020;2023-06-24T07:02:41;34.80;;;22.20;;
28007;SDS011;15333;50.010;20.020;2023-06-24T07:05:42;31.90;;;21.38;;
28007;SDS011;15333;50.010;20.020;2023-06-24T07:08:43;32.20;;;22.67;;
28007;SDS011;15333;50.010;20.020;2023-06-24T07:11:44;38.33;;;24.92;;
28007;SDS011;15333;50.010;20.020;2023-06-24T07:14:45;39.55;;;25.85;;
28007;SDS011;15333;50.010;20.020;2023-06-24T07:17:46;34.80;;;23.45;;
28007;SDS011;15333;50.010;20.020;2023-06-24T07:20:47;34.97;;;25.67;;
28007;SDS011;15333;50.010;20.020;2023-06-24T07:23:49;33.00;;;24.17;;
28007;SDS011;15333;50.010;20.020;2023-06-24T07:26:50;37.33;;;28.02;;
28007;SDS011;15333;50.010;20.020;2023-06-24T07:29:50;35.63;;;26.63;;
28007;SDS011;15333;50.010;20.020;2023-06-24T07:32:51;40.70;;;26.90;;
28007;SDS011;15333;50.010;20.020;2023-06-24T07:35:52;39.65;;;27.80;;
28007;SDS011;15333;50.010;20.020;2023-06-24T07:38:53;41.08;;;28.73;;
28007;SDS011;15333;50.010;20.020;2023-06-24T07:41:54;42.63;;;30.02;;
28007;SDS011;15333;50.010;20.020;2023-06-24T07:44:55;38.55;;;29.42;;
28007;SDS011;15333;50.010;20.020;2023-06-24T07:47:56;46.28;;;29.65;;
28007;SDS011;15333;50.010;20.020;2023-06-24T07:50:57;54.15;;;33.30;;
28007;SDS011;15333;50.010;20.020;2023-06-24T07:53:58;52.05;;;34.75;;
28007;SDS011;15333;50.010;20.020;2023-06-24T07:56:59;48.90;;;34.15;;
28007;SDS011;15333;50.010;20.020;2023-06-24T08:00:00;49.58;;;33.38;;
28007;SDS011;15333;50.010;20.020;2023-06-24T08:03:01;50.97;;;34.40;;
28007;SDS011;15333;50.010;20.020;2023-06-24T08:06:03;53.70;;;35.75;;
28007;SDS011;15333;50.010;20.020;2023-06-24T08:09:04;56.53;;;36.38;;
28007;SDS011;15333;50.010;20.020;2023-06-24T08:12:05;57.67;;;36.92;;
28007;SDS011;15333;50.010;20.020;2023-06-24T08:15:07;56.58;;;37.28;;
28007;SDS011;15333;50.010;20.020;2023-06-24T08:18:08;53.83;;;35.78;;
28007;SDS011;15333;50.010;20.020;2023-06-24T08:21:09;59.55;;;37.67;;
28007;SDS011;15333;50.010;20.020;2023-06-24T08:24:10;53.33;;;35.78;;
28007;SDS011;15333;50.010;20.020;2023-06-24T08:27:11;58.88;;;38.03;;
28007;SDS011;15333;50.010;20.020;2023-06-24T08:30:12;59.60;;;38.13;;
28007;SDS011;15333;50.010;20.020;2023-06-24T08:33:16;57.75;;;36.50;;
28007;SDS011;15333;50.010;20.020;2023-06-24T08:36:16;58.70;;;38.08;;
28007;SDS011;15333;50.010;20.020;2023-06-24T08:39:17;37.03;;;26.27;;
28007;SDS011;15333;50.010;20.020;2023-06-24T08:42:18;33.78;;;24.23;;
28007;SDS011;15333;50.010;20.020;2023-06-24T08:45:19;32.80;;;24.95;;
28007;SDS011;15333;50.010;20.020;2023-06-24T08:48:20;36.45;;;24.48;;
28007;SDS011;15333;50.010;20.020;2023-06-24T08:51:21;26.42;;;22.30;;
28007;SDS011;15333;50.010;20.020;2023-06-24T08:54:28;29.98;;;22.45;;
28007;SDS011;15333;50.010;20.020;2023-06-24T08:57:29;30.85;;;21.83;;
28007;SDS011;15333;50.010;20.020;2023-06-24T09:00:30;28.45;;;22.60;;
28007;SDS011;15333;50.010;20.020;2023-06-24T09:03:31;33.05;;;24.30;;
28007;SDS011;15333;50.010;20.020;2023-06-24T09:06:32;27.35;;;22.23;;
28007;SDS011;15333;50.010;20.020;2023-06-24T09:09:33;30.02;;;22.55;;
28007;SDS011;15333;50.010;20.020;2023-06-24T09:12:43;32.63;;;26.40;;
28007;SDS011;15333;50.010;20.020;2023-06-24T09:15:45;39.42;;;31.48;;
28007;SDS011;15333;50.010;20.020;2023-06-24T09:18:49;46.20;;;38.95;;
28007;SDS011;15333;50.010;20.020;2023-06-24T09:21:51;34.92;;;28.33;;
28007;SDS011;15333;50.010;20.020;2023-06-24T09:24:53;31.35;;;26.77;;
28007;SDS011;15333;50.010;20.020;2023-06-24T09:27:55;37.92;;;27.65;;
28007;SDS011;15333;50.010;20.020;2023-06-24T09:31:08;32.17;;;24.77;;
28007;SDS011;15333;50.010;20.020;2023-06-24T09:34:12;32.60;;;24.40;;
28007;SDS011;15333;50.010;20.020;2023-06-24T09:37:21;29.10;;;23.23;;
28007;SDS011;15333;50.010;20.020;2023-06-24T09:40:23;27.42;;;20.08;;
28007;SDS011;15333;50.010;20.020;2023-06-24T09:43:24;25.83;;;19.98;;
28007;SDS011;15333;50.010;20.020;2023-06-24T09:46:25;29.13;;;23.55;;
28007;SDS011;15333;50.010;20.020;2023-06-24T09:49:28;36.90;;;29.80;;
28007;SDS011;15333;50.010;20.020;2023-06-24T09:52:29;33.90;;;25.98;;
28007;SDS011;15333;50.010;20.020;2023-06-24T09:55:31;28.27;;;20.13;;
28007;SDS011;15333;50.010;20.020;2023-06-24T09:58:36;33.83;;;23.45;;
28007;SDS011;15333;50.010;20.020;2023-06-24T10:01:38;28.42;;;20.95;;
28007;SDS011;15333;50.010;20.020;2023-06-24T10:04:41;25.25;;;19.30;;
28007;SDS011;15333;50.010;20.020;2023-06-24T10:07:43;32.38;;;17.67;;
28007;SDS011;15333;50.010;20.020;2023-06-24T10:10:45;20.83;;;15.50;;
28007;SDS011;15333;50.010;20.020;2023-06-24T10:13:46;23.15;;;15.63;;
28007;SDS011;15333;50.010;20.020;2023-06-24T10:16:48;20.65;;;15.15;;
28007;SDS011;15333;50.010;20.020;2023-06-24T10:19:51;20.73;;;15.18;;
28007;SDS011;15333;50.010;20.020;2023-06-24T10:22:54;18.48;;;13.80;;
28007;SDS011;15333;50.010;20.020;2023-06-24T10:25:55;19.17;;;14.60;;
28007;SDS011;15333;50.010;20.020;2023-06-24T10:32:09;22.10;;;14.93;;
28007;SDS011;15333;50.010;20.020;2023-06-24T10:35:23;19.10;;;15.02;;
28007;SDS011;15333;50.010;20.020;2023-06-24T10:38:30;18.25;;;14.60;;
28007;SDS011;15333;50.010;20.020;2023-06-24T10:41:31;22.80;;;14.82;;
28007;SDS011;15333;50.010;20.020;2023-06-24T10:44:44;19.27;;;13.73;;
28007;SDS011;15333;50.010;20.020;2023-06-24T10:47:48;19.95;;;13.65;;
28007;SDS011;15333;50.010;20.020;2023-06-24T10:50:50;19.40;;;14.57;;
28007;SDS011;15333;50.010;20.020;2023-06-24T10:53:51;22.38;;;14.00;;
28007;SDS011;15333;50.010;20.020;2023-06-24T10:56:53;19.83;;;13.82;;
28007;SDS011;15333;50.010;20.020;2023-06-24T10:59:56;19.20;;;13.48;;
28007;SDS011;15333;50.010;20.020;2023-06-24T11:02:57;20.00;;;13.85;;
28007;SDS011;15333;50.010;20.020;2023-06-24T11:06:07;17.50;;;14.05;;
28007;SDS011;15333;50.010;20.020;2023-06-24T11:09:11;20.13;;;14.68;;
28007;SDS011;15333;50.010;20.020;2023-06-24T11:12:12;20.75;;;14.65;;
28007;SDS011;15333;50.010;20.020;2023-06-24T11:15:13;22.25;;;14.52;;
28007;SDS011;15333;50.010;20.020;2023-06-24T11:18:15;15.73;;;13.05;;
28007;SDS011;15333;50.010;20.020;2023-06-24T11:21:16;21.85;;;14.68;;
28007;SDS011;15333;50.010;20.020;2023-06-24T11:24:17;24.48;;;15.82;;
28007;SDS011;15333;50.010;20.020;2023-06-24T11:27:24;21.40;;;15.68;;
28007;SDS011;15333;50.010;20.020;2023-06-24T11:30:26;20.35;;;13.52;;
28007;SDS011;15333;50.010;20.020;2023-06-24T11:33:28;20.98;;;13.45;;
28007;SDS011;15333;50.010;20.020;2023-06-24T11:36:29;18.25;;;13.38;;
28007;SDS011;15333;50.010;20.020;2023-06-24T11:39:30;19.13;;;13.90;;
28007;SDS011;15333;50.010;20.020;2023-06-24T11:42:32;20.70;;;13.57;;
28007;SDS011;15333;50.010;20.020;2023-06-24T11:45:35;16.17;;;11.95;;
28007;SDS011;15333;50.010;20.020;2023-06-24T11:48:40;14.32;;;10.20;;
28007;SDS011;15333;50.010;20.020;2023-06-24T11:51:47;16.40;;;10.05;;
28007;SDS011;15333;50.010;20.020;2023-06-24T11:54:51;16.38;;;11.70;;
28007;SDS011;15333;50.010;20.020;2023-06-24T12:01:08;18.83;;;14.35;;
28007;SDS011;15333;50.010;20.020;2023-06-24T12:04:12;17.30;;;12.85;;
28007;SDS011;15333;50.010;20.020;2023-06-24T12:07:14;22.30;;;14.10;;
28007;SDS011;15333;50.010;20.020;2023-06-24T12:10:15;20.52;;;15.38;;
28007;SDS011;15333;50.010;20.020;2023-06-24T12:13:16;19.40;;;15.05;;
28007;SDS011;15333;50.010;20.020;2023-06-24T12:16:17;22.25;;;15.85;;
28007;SDS011;15333;50.010;20.020;2023-06-24T12:19:18;22.55;;;15.93;;
28007;SDS011;15333;50.010;20.020;2023-06-24T12:22:21;22.15;;;16.10;;
28007;SDS011;15333;50.010;20.020;2023-06-24T12:25:22;18.77;;;14.80;;
28007;SDS011;15333;50.010;20.020;2023-06-24T12:28:23;27.75;;;16.98;;
28007;SDS011;15333;50.010;20.020;2023-06-24T12:31:24;23.27;;;16.52;;
28007;SDS011;15333;50.010;20.020;2023-06-24T12:34:25;22.08;;;16.02;;
28007;SDS011;15333;50.010;20.020;2023-06-24T12:37:28;18.35;;;14.95;;
28007;SDS011;15333;50.010;20.020;2023-06-24T12:40:30;19.58;;;13.20;;
28007;SDS011;15333;50.010;20.020;2023-06-24T12:43:32;15.98;;;12.20;;
28007;SDS011;15333;50.010;20.020;2023-06-24T12:46:33;15.00;;;11.80;;
28007;SDS011;15333;50.010;20.020;2023-06-24T12:49:34;18.77;;;12.10;;
28007;SDS011;15333;50.010;20.020;2023-06-24T12:52:35;14.02;;;11.30;;
28007;SDS011;15333;50.010;20.020;2023-06-24T12:55:36;17.05;;;11.95;;
28007;SDS011;15333;50.010;20.020;2023-06-24T12:58:37;31.15;;;14.85;;
28007;SDS011;15333;50.010;20.020;2023-06-24T13:01:38;14.10;;;10.38;;
28007;SDS011;15333;50.010;20.020;2023-06-24T13:04:39;15.73;;;10.00;;
28007;SDS011;15333;50.010;20.020;2023-06-24T13:07:40;21.65;;;11.50;;
28007;SDS011;15333;50.010;20.020;2023-06-24T13:10:40;11.65;;;9.52;;
28007;SDS011;15333;50.010;20.020;2023-06-24T13:13:42;13.38;;;8.85;;
28007;SDS011;15333;50.010;20.020;2023-06-24T13:16:43;9.77;;;7.97;;
28007;SDS011;15333;50.010;20.020;2023-06-24T13:19:44;12.85;;;8.52;;
28007;SDS011;15333;50.010;20.020;2023-06-24T13:22:45;12.23;;;9.15;;
28007;SDS011;15333;50.010;20.020;2023-06-24T13:25:46;11.80;;;8.25;;
28007;SDS011;15333;50.010;20.020;2023-06-24T13:28:47;14.30;;;8.88;;
28007;SDS011;15333;50.010;20.020;2023-06-24T13:31:49;12.60;;;8.90;;
28007;SDS011;15333;50.010;20.020;2023-06-24T13:34:50;15.50;;;9.55;;
28007;SDS011;15333;50.010;20.020;2023-06-24T13:37:52;16.45;;;10.70;;
28007;SDS011;15333;50.010;20.020;2023-06-24T13:40:53;16.92;;;10.95;;
28007;SDS011;15333;50.010;20.020;2023-06-24T13:43:55;13.88;;;9.13;;
28007;SDS011;15333;50.010;20.020;2023-06-24T13:46:57;11.65;;;9.35;;
28007;SDS011;15333;50.010;20.020;2023-06-24T13:49:58;14.73;;;8.70;;
28007;SDS011;15333;50.010;20.020;2023-06-24T13:52:59;13.98;;;9.45;;
28007;SDS011;15333;50.010;20.020;2023-06-24T13:56:01;11.00;;;8.70;;
28007;SDS011;15333;50.010;20.020;2023-06-24T13:59:02;9.38;;;8.32;;
28007;SDS011;15333;50.010;20.020;2023-06-24T14:02:03;12.55;;;9.32;;
28007;SDS011;15333;50.010;20.020;2023-06-24T14:05:05;15.75;;;10.27;;
28007;SDS011;15333;50.010;20.020;2023-06-24T14:08:06;17.23;;;11.20;;
28007;SDS011;15333;50.010;20.020;2023-06-24T14:11:07;12.65;;;9.98;;
28007;SDS011;15333;50.010;20.020;2023-06-24T14:14:08;13.35;;;8.93;;
28007;SDS011;15333;50.010;20.020;2023-06-24T14:17:09;11.75;;;9.13;;
28007;SDS011;15333;50.010;20.020;2023-06-24T14:20:12;13.25;;;9.60;;
28007;SDS011;15333;50.010;20.020;2023-06-24T14:23:13;13.10;;;9.77;;
28007;SDS011;15333;50.010;20.020;2023-06-24T14:26:14;12.40;;;9.10;;
28007;SDS011;15333;50.010;20.020;2023-06-24T14:29:15;13.23;;;10.23;;
28007;SDS011;15333;50.010;20.020;2023-06-24T14:32:17;12.68;;;10.40;;
28007;SDS011;15333;50.010;20.020;2023-06-24T14:35:17;13.98;;;9.68;;
28007;SDS011;15333;50.010;20.020;2023-06-24T14:38:19;13.32;;;10.77;;
28007;SDS011;15333;50.010;20.020;2023-06-24T14:41:19;13.95;;;10.93;;
28007;SDS011;15333;50.010;20.020;2023-06-24T14:44:20;13.45;;;10.40;;
28007;SDS011;15333;50.010;20.020;2023-06-24T14:47:21;15.98;;;11.60;;
28007;SDS011;15333;50.010;20.020;2023-06-24T14:50:22;16.45;;;12.40;;
28007;SDS011;15333;50.010;20.020;2023-06-24T14:53:23;20.95;;;14.30;;
28007;SDS011;15333;50.010;20.020;2023-06-24T14:56:24;19.50;;;15.18;;
28007;SDS011;15333;50.010;20.020;2023-06-24T14:59:25;22.50;;;16.40;;
28007;SDS011;15333;50.010;20.020;2023-06-24T15:02:26;20.70;;;16.77;;
28007;SDS011;15333;50.010;20.020;2023-06-24T15:05:27;21.77;;;16.73;;
28007;SDS011;15333;50.010;20.020;2023-06-24T15:08:28;21.73;;;17.45;;
28007;SDS011;15333;50.010;20.020;2023-06-24T15:11:28;25.45;;;20.52;;
28007;SDS011;15333;50.010;20.020;2023-06-24T15:14:29;25.42;;;20.60;;
28007;SDS011;15333;50.010;20.020;2023-06-24T15:17:30;29.02;;;22.77;;
28007;SDS011;15333;50.010;20.020;2023-06-24T15:20:31;23.92;;;17.98;;
28007;SDS011;15333;50.010;20.020;2023-06-24T15:23:32;20.92;;;17.10;;
28007;SDS011;15333;50.010;20.020;2023-06-24T15:26:33;19.25;;;14.00;;
28007;SDS011;15333;50.010;20.020;2023-06-24T15:29:34;17.77;;;14.18;;
28007;SDS011;15333;50.010;20.020;2023-06-24T15:32:35;21.73;;;13.77;;
28007;SDS011;15333;50.010;20.020;2023-06-24T15:35:36;21.13;;;13.57;;
28007;SDS011;15333;50.010;20.020;2023-06-24T15:38:38;17.20;;;13.13;;
28007;SDS011;15333;50.010;20.020;2023-06-24T15:41:38;20.08;;;14.00;;
28007;SDS011;15333;50.010;20.020;2023-06-24T15:44:39;27.63;;;14.60;;
28007;SDS011;15333;50.010;20.020;2023-06-24T15:47:40;18.95;;;14.35;;
28007;SDS011;15333;50.010;20.020;2023-06-24T15:50:42;20.40;;;14.90;;
28007;SDS011;15333;50.010;20.020;2023-06-24T15:53:43;22.77;;;14.93;;
28007;SDS011;15333;50.010;20.020;2023-06-24T15:56:44;22.90;;;16.45;;
28007;SDS011;15333;50.010;20.020;2023-06-24T15:59:45;23.30;;;14.55;;
28007;SDS011;15333;50.010;20.020;2023-06-24T16:02:46;21.83;;;14.98;;
28007;SDS011;15333;50.010;20.020;2023-06-24T16:05:46;22.95;;;15.38;;
28007;SDS011;15333;50.010;20.020;2023-06-24T16:08:48;23.65;;;14.82;;
28007;SDS011;15333;50.010;20.020;2023-06-24T16:11:49;21.65;;;14.80;;
28007;SDS011;15333;50.010;20.020;2023-06-24T16:14:50;23.75;;;14.02;;
28007;SDS011;15333;50.010;20.020;2023-06-24T16:17:51;25.27;;;15.90;;
28007;SDS011;15333;50.010;20.020;2023-06-24T16:20:52;23.45;;;15.10;;
28007;SDS011;15333;50.010;20.020;2023-06-24T16:23:53;21.98;;;14.90;;
28007;SDS011;15333;50.010;20.020;2023-06-24T16:26:54;20.63;;;13.27;;
28007;SDS011;15333;50.010;20.020;2023-06-24T16:29:55;25.20;;;15.18;;
28007;SDS011;15333;50.010;20.020;2023-06-24T16:32:56;23.27;;;14.98;;
28007;SDS011;15333;50.010;20.020;2023-06-24T16:35:56;21.27;;;17.10;;
28007;SDS011;15333;50.010;20.020;2023-06-24T16:38:57;26.83;;;16.95;;
28007;SDS011;15333;50.010;20.020;2023-06-24T16:41:58;25.08;;;17.35;;
28007;SDS011;15333;50.010;20.020;2023-06-24T16:44:59;28.38;;;17.90;;
28007;SDS011;15333;50.010;20.020;2023-06-24T16:48:00;22.23;;;16.83;;
28007;SDS011;15333;50.010;20.020;2023-06-24T16:51:01;22.67;;;15.88;;
28007;SDS011;15333;50.010;20.020;2023-06-24T16:54:02;25.73;;;16.85;;
28007;SDS011;15333;50.010;20.020;2023-06-24T16:57:03;23.98;;;18.48;;
28007;SDS011;15333;50.010;20.020;2023-06-24T17:00:05;22.63;;;17.13;;
28007;SDS011;15333;50.010;20.020;2023-06-24T17:03:06;29.40;;;18.70;;
28007;SDS011;15333;50.010;20.020;2023-06-24T17:06:07;29.67;;;19.73;;
28007;SDS011;15333;50.010;20.020;2023-06-24T17:09:08;28.38;;;19.58;;
28007;SDS011;15333;50.010;20.020;2023-06-24T17:12:09;25.65;;;19.15;;
28007;SDS011;15333;50.010;20.020;2023-06-24T17:15:10;25.85;;;17.50;;
28007;SDS011;15333;50.010;20.020;2023-06-24T17:18:11;19.73;;;14.80;;
28007;SDS011;15333;50.010;20.020;2023-06-24T17:21:12;20.42;;;13.48;;
28007;SDS011;15333;50.010;20.020;2023-06-24T17:24:13;19.88;;;12.68;;
28007;SDS011;15333;50.010;20.020;2023-06-24T17:27:14;15.88;;;11.45;;
28007;SDS011;15333;50.010;20.020;2023-06-24T17:30:16;20.58;;;12.65;;
28007;SDS011;15333;50.010;20.020;2023-06-24T17:33:18;19.05;;;12.88;;
28007;SDS011;15333;50.010;20.020;2023-06-24T17:36:18;18.73;;;12.95;;
28007;SDS011;15333;50.010;20.020;2023-06-24T17:39:19;18.90;;;12.98;;
28007;SDS011;15333;50.010;20.020;2023-06-24T17:42:20;19.60;;;13.55;;
28007;SDS011;15333;50.010;20.020;2023-06-24T17:45:22;22.38;;;14.27;;
28007;SDS011;15333;50.010;20.020;2023-06-24T17:48:23;25.10;;;14.10;;
28007;SDS011;15333;50.010;20.020;2023-06-24T17:51:24;20.25;;;14.32;;
28007;SDS011;15333;50.010;20.020;2023-06-24T17:54:26;18.83;;;12.82;;
28007;SDS011;15333;50.010;20.020;2023-06-24T17:57:27;19.70;;;13.40;;